Time;durP1;ratioP1;P1;durP2;ratioP2;P2;SDS_P1;SDS_P2;PMS_P1;PMS_P2;Temp;Humidity;BMP_temperature;BMP_pressure;BME280_temperature;BME280_humidity;BME280_pressure;Samples;Min_cycle;Max_cycle;Signal;HPM_P1;HPM_P2
2022/12/19 00:01:26;;;;;;;9.27;5.70;;;0.40;99.90;;;;;;5008340;28;20057;-81
2022/12/19 00:03:57;;;;;;;8.68;5.32;;;0.40;99.90;;;;;;5008374;28;20050;-81
2022/12/19 00:06:26;;;;;;;6.63;5.10;;;0.40;99.90;;;;;;4981272;28;20132;-80
2022/12/19 00:08:57;;;;;;;8.85;5.30;;;0.40;99.90;;;;;;5003969;28;20077;-80
2022/12/19 00:11:25;;;;;;;7.47;4.88;;;0.50;99.90;;;;;;4999293;28;20046;-81
2022/12/19 00:13:53;;;;;;;7.22;4.95;;;0.50;99.90;;;;;;5010734;28;20041;-79
2022/12/19 00:16:25;;;;;;;7.32;4.15;;;0.50;99.90;;;;;;5009727;28;20085;-80
2022/12/19 00:18:55;;;;;;;8.88;5.70;;;0.60;99.90;;;;;;4997446;28;20049;-79
2022/12/19 00:21:25;;;;;;;7.20;4.75;;;0.60;99.90;;;;;;5008990;28;20054;-81
2022/12/19 00:23:53;;;;;;;5.88;4.78;;;0.70;99.90;;;;;;5025806;28;20069;-80
2022/12/19 00:26:23;;;;;;;7.20;4.97;;;0.70;99.90;;;;;;5009017;28;20068;-80
2022/12/19 00:28:55;;;;;;;9.75;5.07;;;0.80;99.90;;;;;;5004610;28;20046;-80
2022/12/19 00:31:28;;;;;;;11.10;5.35;;;0.80;99.90;;;;;;5005305;28;20050;-82
2022/12/19 00:33:56;;;;;;;8.45;5.00;;;0.80;99.90;;;;;;5001205;28;20085;-80
2022/12/19 00:36:26;;;;;;;11.35;4.55;;;0.90;99.90;;;;;;5008052;28;20053;-79
2022/12/19 00:38:56;;;;;;;6.82;4.60;;;0.90;99.90;;;;;;4991556;28;20137;-79
2022/12/19 00:41:26;;;;;;;8.80;5.00;;;0.90;99.90;;;;;;5009993;28;20080;-79
2022/12/19 00:43:58;;;;;;;8.57;5.20;;;0.90;99.90;;;;;;5000672;28;20136;-80
2022/12/19 00:46:29;;;;;;;6.43;4.90;;;0.90;99.90;;;;;;5004879;28;20486;-79
2022/12/19 00:48:57;;;;;;;7.50;4.90;;;0.90;99.90;;;;;;5001719;28;20133;-79
2022/12/19 00:51:27;;;;;;;5.63;4.72;;;0.90;99.90;;;;;;4995038;28;20066;-79
2022/12/19 00:53:57;;;;;;;9.77;4.68;;;0.90;99.90;;;;;;5013372;28;20562;-79
2022/12/19 00:56:27;;;;;;;11.50;5.47;;;0.90;99.90;;;;;;5008814;28;20506;-78
2022/12/19 00:58:56;;;;;;;6.28;4.93;;;0.90;99.90;;;;;;5005841;28;20057;-79
2022/12/19 01:01:29;;;;;;;7.30;5.78;;;0.90;99.90;;;;;;4999947;28;20050;-79
2022/12/19 01:03:58;;;;;;;7.53;5.28;;;0.90;99.90;;;;;;5000342;28;20185;-79
2022/12/19 01:06:27;;;;;;;5.53;4.40;;;0.90;99.90;;;;;;5001280;28;20042;-79
2022/12/19 01:08:55;;;;;;;5.18;3.97;;;1.00;99.90;;;;;;5007865;28;20043;-80
2022/12/19 01:12:44;;;;;;;5.95;4.22;;;1.00;99.90;;;;;;4992175;28;20228;-79
2022/12/19 01:14:11;;;;;;;7.47;3.85;;;1.00;99.90;;;;;;4992169;28;20096;-79
2022/12/19 01:16:42;;;;;;;5.50;3.88;;;1.10;99.90;;;;;;5005485;28;20045;-79
2022/12/19 01:19:10;;;;;;;4.78;3.45;;;1.10;99.90;;;;;;5004418;28;20085;-79
2022/12/19 01:21:37;;;;;;;5.72;4.15;;;1.10;99.90;;;;;;4997383;28;20133;-81
2022/12/19 01:24:06;;;;;;;5.97;4.10;;;1.10;99.90;;;;;;4994007;28;20460;-78
2022/12/19 01:26:34;;;;;;;6.88;4.25;;;1.20;99.90;;;;;;5004993;28;20069;-79
2022/12/19 01:29:01;;;;;;;4.50;4.10;;;1.20;99.90;;;;;;4993654;28;20519;-80
2022/12/19 01:31:29;;;;;;;4.75;4.03;;;1.20;99.90;;;;;;5005689;28;20799;-78
2022/12/19 01:33:59;;;;;;;5.95;4.10;;;1.20;99.90;;;;;;5006128;28;20053;-79
2022/12/19 01:36:27;;;;;;;4.72;4.25;;;1.20;99.90;;;;;;4993542;28;20092;-79
2022/12/19 01:38:56;;;;;;;6.22;4.95;;;1.20;99.90;;;;;;5007946;28;20080;-79
2022/12/19 01:41:26;;;;;;;5.63;4.28;;;1.20;99.90;;;;;;5011284;28;20423;-80
2022/12/19 01:43:57;;;;;;;8.50;4.70;;;1.20;99.90;;;;;;5014358;28;20515;-76
2022/12/19 01:46:28;;;;;;;7.13;5.25;;;1.20;99.90;;;;;;5010034;28;20458;-77
2022/12/19 01:48:57;;;;;;;7.45;5.20;;;1.20;99.90;;;;;;4999908;28;20054;-76
2022/12/19 01:51:33;;;;;;;10.98;6.10;;;1.30;99.90;;;;;;5019498;28;20038;-76
2022/12/19 01:54:05;;;;;;;6.90;5.30;;;1.30;99.90;;;;;;5011858;28;20140;-76
2022/12/19 01:56:40;;;;;;;7.60;5.10;;;1.30;99.90;;;;;;4999456;28;20514;-76
2022/12/19 01:59:14;;;;;;;6.40;5.28;;;1.30;99.90;;;;;;4992539;28;20088;-76
2022/12/19 02:01:46;;;;;;;6.10;5.20;;;1.30;99.90;;;;;;5006112;28;20410;-76
2022/12/19 02:04:16;;;;;;;7.45;5.85;;;1.30;99.90;;;;;;5002176;28;20051;-76
2022/12/19 02:06:44;;;;;;;7.30;4.90;;;1.30;99.90;;;;;;5009158;28;20399;-75
2022/12/19 02:09:12;;;;;;;7.13;3.88;;;1.40;99.90;;;;;;4996447;28;20414;-76
2022/12/19 02:11:40;;;;;;;8.50;4.20;;;1.40;99.90;;;;;;5014538;28;20054;-76
2022/12/19 02:14:08;;;;;;;6.65;2.83;;;1.40;99.90;;;;;;4995305;28;20144;-76
2022/12/19 02:17:04;;;;;;;5.82;3.25;;;1.50;99.90;;;;;;4995246;28;20135;-76
2022/12/19 02:20:23;;;;;;;4.22;3.13;;;1.50;99.90;;;;;;5007341;28;20123;-76
2022/12/19 02:23:14;;;;;;;2.20;2.00;;;1.60;99.90;;;;;;4993958;28;20049;-75
2022/12/19 02:26:20;;;;;;;2.13;1.95;;;1.60;99.90;;;;;;4998318;28;20050;-75
2022/12/19 02:29:44;;;;;;;3.63;1.90;;;1.70;99.90;;;;;;4995031;28;20145;-75
2022/12/19 02:32:18;;;;;;;6.03;1.90;;;1.70;99.90;;;;;;5001519;28;20141;-75
2022/12/19 02:34:54;;;;;;;3.15;1.20;;;1.80;99.90;;;;;;5023278;28;20060;-74
2022/12/19 02:37:28;;;;;;;1.73;1.20;;;1.80;99.90;;;;;;5012842;28;20052;-75
2022/12/19 02:40:01;;;;;;;2.80;1.17;;;1.90;99.90;;;;;;5002492;28;20117;-75
2022/12/19 02:42:34;;;;;;;4.00;0.73;;;1.90;99.90;;;;;;5008837;28;20391;-75
2022/12/19 02:45:08;;;;;;;4.00;0.70;;;1.90;99.90;;;;;;5010968;28;20108;-74
2022/12/19 02:47:38;;;;;;;4.60;1.40;;;1.90;99.90;;;;;;5010515;28;20526;-75
2022/12/19 02:50:08;;;;;;;3.20;1.10;;;1.90;99.90;;;;;;5004386;28;20054;-75
2022/12/19 02:52:54;;;;;;;1.73;0.82;;;1.90;99.90;;;;;;5001944;28;20431;-75
2022/12/19 02:55:23;;;;;;;4.40;1.23;;;1.90;99.90;;;;;;5001202;28;20058;-75
2022/12/19 02:58:26;;;;;;;5.03;1.10;;;1.80;99.90;;;;;;5003351;28;20062;-75
2022/12/19 03:01:04;;;;;;;3.72;1.08;;;1.80;99.90;;;;;;5015051;28;20080;-75
2022/12/19 03:03:45;;;;;;;2.45;1.20;;;1.80;99.90;;;;;;4999970;28;20450;-75
2022/12/19 03:06:25;;;;;;;4.20;0.75;;;1.80;99.90;;;;;;5007583;28;20049;-75
2022/12/19 03:09:00;;;;;;;3.35;1.08;;;1.90;99.90;;;;;;5005825;28;20050;-74
2022/12/19 03:11:32;;;;;;;8.32;1.00;;;1.80;99.90;;;;;;4997498;28;20050;-75
2022/12/19 03:14:04;;;;;;;4.25;1.00;;;1.90;99.90;;;;;;5008006;28;20104;-75
2022/12/19 03:16:34;;;;;;;5.55;1.33;;;1.90;99.90;;;;;;5001372;28;20050;-74
2022/12/19 03:19:03;;;;;;;3.72;1.02;;;1.90;99.90;;;;;;5010822;28;20119;-75
2022/12/19 03:21:37;;;;;;;3.92;0.93;;;1.90;99.90;;;;;;5002761;28;20056;-76
2022/12/19 03:24:07;;;;;;;5.50;0.85;;;1.90;99.90;;;;;;5009975;28;20049;-74
2022/12/19 03:26:43;;;;;;;2.80;1.02;;;1.90;99.90;;;;;;5010711;28;20041;-74
2022/12/19 03:29:16;;;;;;;2.92;0.93;;;1.80;99.90;;;;;;4995497;28;20128;-75
2022/12/19 03:31:45;;;;;;;1.63;1.02;;;1.90;99.90;;;;;;5002277;28;20058;-75
2022/12/19 03:34:18;;;;;;;5.32;1.25;;;1.80;99.90;;;;;;4997971;28;20507;-75
2022/12/19 03:36:49;;;;;;;3.78;1.08;;;1.90;99.90;;;;;;5010851;28;20057;-75
2022/12/19 03:39:18;;;;;;;6.25;1.00;;;1.90;99.90;;;;;;5006635;28;20447;-75
2022/12/19 03:44:35;;;;;;;2.50;0.75;;;1.90;99.90;;;;;;5009080;28;20054;-76
2022/12/19 03:47:11;;;;;;;8.35;0.75;;;1.80;99.90;;;;;;4995040;28;20128;-77
2022/12/19 03:49:40;;;;;;;9.80;1.67;;;1.90;99.90;;;;;;4998489;28;20046;-73
2022/12/19 03:52:20;;;;;;;15.40;1.48;;;1.80;99.90;;;;;;4996140;28;20046;-73
2022/12/19 03:54:56;;;;;;;10.13;0.85;;;1.70;99.90;;;;;;5000788;28;20054;-72
2022/12/19 03:57:30;;;;;;;2.50;0.80;;;1.60;99.90;;;;;;5010711;28;20100;-72
2022/12/19 04:00:04;;;;;;;5.78;0.85;;;1.60;99.90;;;;;;5000997;28;20057;-72
2022/12/19 04:02:44;;;;;;;5.10;0.70;;;1.50;99.90;;;;;;5006694;28;20049;-73
2022/12/19 04:05:18;;;;;;;6.03;1.10;;;1.50;99.90;;;;;;4994740;28;20050;-80
2022/12/19 04:07:48;;;;;;;5.47;1.20;;;1.40;99.90;;;;;;5008820;28;20459;-79
2022/12/19 04:10:18;;;;;;;2.10;0.73;;;1.30;99.90;;;;;;5004593;28;20104;-79
2022/12/19 04:12:52;;;;;;;2.55;0.68;;;1.30;99.90;;;;;;4995792;28;20085;-79
2022/12/19 04:15:32;;;;;;;5.65;1.27;;;1.30;99.90;;;;;;4996147;28;20054;-79
2022/12/19 04:18:06;;;;;;;5.03;0.82;;;1.20;99.90;;;;;;5016146;28;20418;-79
2022/12/19 04:20:39;;;;;;;2.83;0.85;;;1.20;99.90;;;;;;5003818;28;20073;-78
2022/12/19 04:23:14;;;;;;;2.92;0.60;;;1.20;99.90;;;;;;5002855;28;20046;-75
2022/12/19 04:25:46;;;;;;;3.05;0.60;;;1.20;99.90;;;;;;5006177;28;20054;-72
2022/12/19 04:28:24;;;;;;;3.67;0.77;;;1.20;99.90;;;;;;4991265;28;20046;-75
2022/12/19 04:30:54;;;;;;;5.43;0.95;;;1.20;99.90;;;;;;4994084;28;20450;-72
2022/12/19 04:33:22;;;;;;;6.00;1.30;;;1.10;99.90;;;;;;4994834;28;20050;-72
2022/12/19 04:35:51;;;;;;;5.25;1.15;;;1.10;99.90;;;;;;5009396;28;20046;-71
2022/12/19 04:38:21;;;;;;;6.88;0.95;;;1.10;99.90;;;;;;5011806;28;20056;-72
2022/12/19 04:40:49;;;;;;;5.15;0.90;;;1.10;99.90;;;;;;5011079;28;20077;-73
2022/12/19 04:43:22;;;;;;;6.78;1.08;;;1.20;99.90;;;;;;5001273;28;20041;-72
2022/12/19 04:46:02;;;;;;;5.05;0.65;;;1.20;99.90;;;;;;4996372;28;20431;-72
2022/12/19 04:48:32;;;;;;;4.18;1.10;;;1.20;99.90;;;;;;5001497;28;20144;-76
2022/12/19 04:51:03;;;;;;;4.20;1.13;;;1.20;99.90;;;;;;5003731;28;20052;-72
2022/12/19 04:53:31;;;;;;;7.25;0.95;;;1.20;99.90;;;;;;5000118;28;20537;-76
2022/12/19 04:56:06;;;;;;;7.38;1.30;;;1.20;99.90;;;;;;5001007;28;20536;-78
2022/12/19 04:58:34;;;;;;;7.03;1.23;;;1.20;99.90;;;;;;5006179;28;20056;-73
2022/12/19 05:01:02;;;;;;;6.55;1.00;;;1.30;99.90;;;;;;5010215;28;20049;-73
2022/12/19 05:03:30;;;;;;;7.47;1.08;;;1.30;99.90;;;;;;4993664;28;20410;-76
2022/12/19 05:06:07;;;;;;;6.88;1.35;;;1.30;99.90;;;;;;5002034;28;20045;-74
2022/12/19 05:08:35;;;;;;;6.78;1.10;;;1.20;99.90;;;;;;5003341;28;20617;-72
2022/12/19 05:11:04;;;;;;;4.60;1.08;;;1.20;99.90;;;;;;4999650;28;20074;-72
2022/12/19 05:13:32;;;;;;;4.82;1.30;;;1.20;99.90;;;;;;5009902;28;20050;-72
2022/12/19 05:16:01;;;;;;;3.00;0.70;;;1.20;99.90;;;;;;5009300;28;20108;-72
2022/12/19 05:18:29;;;;;;;8.82;1.02;;;1.30;99.90;;;;;;5001982;28;20138;-73
2022/12/19 05:20:57;;;;;;;3.42;2.08;;;1.30;99.90;;;;;;4990603;28;20042;-71
2022/12/19 05:23:26;;;;;;;5.13;0.95;;;1.30;99.90;;;;;;4988970;28;20042;-72
2022/12/19 05:25:54;;;;;;;1.25;0.60;;;1.40;99.90;;;;;;5002653;28;20045;-73
2022/12/19 05:28:21;;;;;;;5.97;1.08;;;1.40;99.90;;;;;;4991658;28;20077;-73
2022/12/19 05:30:49;;;;;;;6.32;1.25;;;1.50;99.90;;;;;;5010856;28;20081;-74
2022/12/19 05:33:17;;;;;;;3.55;1.00;;;1.50;99.90;;;;;;5009376;28;20046;-76
2022/12/19 05:35:44;;;;;;;2.50;0.82;;;1.50;99.90;;;;;;5007131;28;20046;-78
2022/12/19 05:38:12;;;;;;;3.80;0.85;;;1.50;99.90;;;;;;4998480;28;20057;-75
2022/12/19 05:40:44;;;;;;;2.90;0.93;;;1.60;99.90;;;;;;5008580;28;20050;-74
2022/12/19 05:43:12;;;;;;;5.97;1.50;;;1.60;99.90;;;;;;4995101;28;20061;-75
2022/12/19 05:45:40;;;;;;;7.35;0.88;;;1.60;99.90;;;;;;5001073;28;20506;-72
2022/12/19 05:48:08;;;;;;;3.63;1.40;;;1.50;99.90;;;;;;5009799;28;20423;-74
2022/12/19 05:50:35;;;;;;;7.65;1.38;;;1.50;99.90;;;;;;5008878;28;20054;-72
2022/12/19 05:53:09;;;;;;;4.95;1.10;;;1.50;99.90;;;;;;5008596;28;20057;-71
2022/12/19 05:55:37;;;;;;;7.18;1.23;;;1.50;99.90;;;;;;5019617;28;20046;-72
2022/12/19 05:58:06;;;;;;;4.65;0.82;;;1.50;99.90;;;;;;4989082;28;20050;-74
2022/12/19 06:00:33;;;;;;;6.60;1.00;;;1.50;99.90;;;;;;4989188;28;20109;-73
2022/12/19 06:03:01;;;;;;;4.18;1.55;;;1.50;99.90;;;;;;4988777;28;20046;-70
2022/12/19 06:05:29;;;;;;;5.45;1.13;;;1.50;99.90;;;;;;4997211;28;20062;-74
2022/12/19 06:07:56;;;;;;;7.18;0.85;;;1.50;99.90;;;;;;5008207;28;20057;-75
2022/12/19 06:10:24;;;;;;;5.57;1.25;;;1.50;99.90;;;;;;5007101;28;20477;-76
2022/12/19 06:12:52;;;;;;;5.07;1.13;;;1.50;99.90;;;;;;5008677;28;20247;-74
2022/12/19 06:15:21;;;;;;;9.90;1.50;;;1.50;99.90;;;;;;5024743;28;20057;-74
2022/12/19 06:17:48;;;;;;;7.63;1.15;;;1.60;99.90;;;;;;5009727;28;20057;-76
2022/12/19 06:20:16;;;;;;;3.65;1.50;;;1.60;99.90;;;;;;5007327;28;20127;-74
2022/12/19 06:22:44;;;;;;;5.68;1.52;;;1.70;99.90;;;;;;4999706;28;20034;-75
2022/12/19 06:25:14;;;;;;;4.00;0.98;;;1.70;99.90;;;;;;5001974;28;20045;-74
2022/12/19 06:27:42;;;;;;;5.88;1.17;;;1.70;99.90;;;;;;5004302;28;20053;-77
2022/12/19 06:30:18;;;;;;;3.90;1.02;;;1.60;99.90;;;;;;5001872;28;20038;-75
2022/12/19 06:32:54;;;;;;;5.65;1.05;;;1.70;99.90;;;;;;4987578;28;20153;-77
2022/12/19 06:35:23;;;;;;;7.28;1.10;;;1.70;99.90;;;;;;5002554;28;20077;-76
2022/12/19 06:37:50;;;;;;;9.80;0.82;;;1.70;99.90;;;;;;5001575;28;20050;-75
2022/12/19 06:42:59;;;;;;;4.85;1.30;;;1.70;99.90;;;;;;5003379;28;20050;-75
2022/12/19 06:45:26;;;;;;;7.97;1.95;;;1.70;99.90;;;;;;5001492;28;20426;-75
2022/12/19 06:47:56;;;;;;;2.30;0.82;;;1.70;99.90;;;;;;5000646;28;20511;-74
2022/12/19 06:50:24;;;;;;;3.42;0.60;;;1.70;99.90;;;;;;5002503;28;20053;-74
2022/12/19 06:52:52;;;;;;;5.13;0.90;;;1.70;99.90;;;;;;5006222;28;20053;-75
2022/12/19 06:55:19;;;;;;;4.03;0.90;;;1.70;99.90;;;;;;4991620;28;20149;-75
2022/12/19 06:57:48;;;;;;;3.17;0.93;;;1.80;99.90;;;;;;5020404;28;20167;-75
2022/12/19 07:00:17;;;;;;;2.70;1.00;;;1.80;99.90;;;;;;5002038;28;20096;-75
2022/12/19 07:02:49;;;;;;;4.22;1.27;;;1.80;99.90;;;;;;5000852;28;20042;-75
2022/12/19 07:05:19;;;;;;;6.55;1.40;;;1.80;99.90;;;;;;5002795;28;20042;-75
2022/12/19 07:07:46;;;;;;;6.32;0.90;;;1.80;99.90;;;;;;5002573;28;20057;-73
2022/12/19 07:10:16;;;;;;;4.43;0.90;;;1.70;99.90;;;;;;5004835;28;20054;-75
2022/12/19 07:12:44;;;;;;;5.63;1.40;;;1.70;99.90;;;;;;4998964;28;20050;-75
2022/12/19 07:15:12;;;;;;;4.03;0.88;;;1.60;99.90;;;;;;5006310;28;20050;-74
2022/12/19 07:17:40;;;;;;;6.72;1.02;;;1.50;99.90;;;;;;4999613;28;20081;-76
2022/12/19 07:20:09;;;;;;;5.63;0.90;;;1.50;99.90;;;;;;5009123;28;20542;-75
2022/12/19 07:22:39;;;;;;;2.55;0.70;;;1.50;99.90;;;;;;4991590;28;20058;-75
2022/12/19 07:25:08;;;;;;;9.85;0.85;;;1.50;99.90;;;;;;5002126;28;20034;-76
2022/12/19 07:27:36;;;;;;;5.22;1.08;;;1.50;99.90;;;;;;5001485;28;20294;-76
2022/12/19 07:30:07;;;;;;;5.00;1.35;;;1.50;99.90;;;;;;5002439;28;20046;-75
2022/12/19 07:32:35;;;;;;;2.42;0.90;;;1.50;99.90;;;;;;5007659;28;20056;-75
2022/12/19 07:35:02;;;;;;;6.20;2.00;;;1.50;99.90;;;;;;4938857;28;23800;-76
2022/12/19 07:37:32;;;;;;;3.58;1.50;;;1.50;99.90;;;;;;5022114;28;20053;-77
2022/12/19 07:40:01;;;;;;;2.05;1.05;;;1.50;99.90;;;;;;5008651;28;20403;-75
2022/12/19 07:42:31;;;;;;;6.72;0.80;;;1.50;99.90;;;;;;5006741;28;20053;-73
2022/12/19 07:45:01;;;;;;;0.77;0.55;;;1.50;99.90;;;;;;5008559;28;20085;-74
2022/12/19 07:47:31;;;;;;;4.00;0.50;;;1.50;99.90;;;;;;5008108;28;20131;-72
2022/12/19 07:49:59;;;;;;;3.20;0.60;;;1.50;99.90;;;;;;5011334;28;20141;-70
2022/12/19 07:52:26;;;;;;;7.38;0.77;;;1.50;99.90;;;;;;5006548;28;20041;-76
2022/12/19 07:54:54;;;;;;;9.90;1.02;;;1.50;99.90;;;;;;5010129;28;20048;-74
2022/12/19 07:57:23;;;;;;;4.70;1.38;;;1.50;99.90;;;;;;5006349;28;20549;-74
2022/12/19 07:59:50;;;;;;;4.63;0.90;;;1.50;99.90;;;;;;5007487;28;20529;-76
2022/12/19 08:02:18;;;;;;;2.47;1.10;;;1.60;99.90;;;;;;5005194;28;20046;-77
2022/12/19 08:04:45;;;;;;;6.43;0.93;;;1.60;99.90;;;;;;5005307;28;20073;-77
2022/12/19 08:07:13;;;;;;;3.00;0.82;;;1.60;99.90;;;;;;5007080;28;20387;-77
2022/12/19 08:09:43;;;;;;;4.22;0.95;;;1.60;99.90;;;;;;5005042;28;20076;-76
2022/12/19 08:12:11;;;;;;;4.80;0.90;;;1.60;99.90;;;;;;5005756;28;20060;-74
2022/12/19 08:14:39;;;;;;;2.20;0.60;;;1.60;99.90;;;;;;5006149;28;20053;-73
2022/12/19 08:17:08;;;;;;;0.88;0.68;;;1.60;99.90;;;;;;5009019;28;20047;-72
2022/12/19 08:19:35;;;;;;;2.13;0.90;;;1.60;99.90;;;;;;5026367;28;20053;-75
2022/12/19 08:22:03;;;;;;;2.75;1.00;;;1.60;99.90;;;;;;5012063;28;20054;-73
2022/12/19 08:24:30;;;;;;;6.88;1.27;;;1.50;99.90;;;;;;5003650;28;20053;-72
2022/12/19 08:26:58;;;;;;;5.20;1.48;;;1.50;99.90;;;;;;5019422;28;20115;-73
2022/12/19 08:29:26;;;;;;;2.47;0.88;;;1.50;99.90;;;;;;5025816;28;20231;-74
2022/12/19 08:31:55;;;;;;;4.38;0.95;;;1.50;99.90;;;;;;5006305;28;20088;-74
2022/12/19 08:34:22;;;;;;;5.20;0.70;;;1.40;99.90;;;;;;5006639;28;20057;-75
2022/12/19 08:36:50;;;;;;;5.72;1.17;;;1.50;99.90;;;;;;5003332;28;20469;-75
2022/12/19 08:39:18;;;;;;;1.02;0.70;;;1.40;99.90;;;;;;5003588;28;20115;-75
2022/12/19 08:41:45;;;;;;;6.28;1.75;;;1.30;99.90;;;;;;5004411;28;20163;-74
2022/12/19 08:44:13;;;;;;;3.30;0.80;;;1.20;99.90;;;;;;5002518;28;20050;-76
2022/12/19 08:46:41;;;;;;;3.28;0.77;;;1.10;99.90;;;;;;5001859;28;20054;-75
2022/12/19 08:49:09;;;;;;;3.50;1.35;;;1.00;99.90;;;;;;5003545;28;20133;-75
2022/12/19 08:51:37;;;;;;;4.80;1.10;;;0.90;99.90;;;;;;5003733;28;20338;-74
2022/12/19 08:54:05;;;;;;;4.97;0.88;;;0.90;99.90;;;;;;5005758;28;20387;-72
2022/12/19 08:56:34;;;;;;;4.88;1.55;;;0.90;99.90;;;;;;5005728;28;20072;-72
2022/12/19 08:59:02;;;;;;;2.67;1.08;;;0.90;99.90;;;;;;5004856;28;20049;-74
2022/12/19 09:01:29;;;;;;;2.85;1.20;;;0.90;99.90;;;;;;5005481;28;20148;-74
2022/12/19 09:03:59;;;;;;;4.28;1.23;;;0.90;99.90;;;;;;5005617;28;20053;-74
2022/12/19 09:06:28;;;;;;;4.95;1.17;;;1.00;99.90;;;;;;5006904;28;20076;-73
2022/12/19 09:08:56;;;;;;;5.90;1.45;;;1.00;99.90;;;;;;5010093;28;20096;-74
2022/12/19 09:11:24;;;;;;;3.95;0.60;;;1.00;99.90;;;;;;5003870;28;20050;-74
2022/12/19 09:13:51;;;;;;;6.90;1.55;;;0.90;99.90;;;;;;5007097;28;20046;-73
2022/12/19 09:16:22;;;;;;;2.90;1.10;;;0.80;99.90;;;;;;5010317;28;20149;-75
2022/12/19 09:18:51;;;;;;;8.07;1.52;;;0.80;99.90;;;;;;5010633;28;20049;-76
2022/12/19 09:21:22;;;;;;;4.38;0.90;;;0.80;99.90;;;;;;5009651;28;20060;-75
2022/12/19 09:23:53;;;;;;;5.38;1.02;;;0.80;99.90;;;;;;5011118;28;20408;-76
2022/12/19 09:26:33;;;;;;;8.60;2.17;;;0.80;99.90;;;;;;5002101;28;20058;-76
2022/12/19 09:29:02;;;;;;;4.30;1.05;;;0.70;99.90;;;;;;4973560;28;20058;-75
2022/12/19 09:31:30;;;;;;;8.18;1.77;;;0.60;99.90;;;;;;5009261;28;20058;-75
2022/12/19 09:33:57;;;;;;;6.13;1.27;;;0.50;99.90;;;;;;4991146;28;20050;-75
2022/12/19 09:36:25;;;;;;;4.22;1.08;;;0.50;99.90;;;;;;4989771;28;20113;-76
2022/12/19 09:38:57;;;;;;;9.70;1.50;;;0.40;99.90;;;;;;4993551;28;20050;-76
2022/12/19 09:41:50;;;;;;;6.43;1.55;;;0.40;99.90;;;;;;5016979;28;20096;-75
2022/12/19 09:44:38;;;;;;;7.97;1.30;;;0.30;99.90;;;;;;4996149;28;20594;-76
2022/12/19 09:47:13;;;;;;;5.72;1.20;;;0.30;99.90;;;;;;5006884;28;20056;-77
2022/12/19 09:49:43;;;;;;;4.55;1.42;;;0.30;99.90;;;;;;4997242;28;20129;-75
2022/12/19 09:52:17;;;;;;;5.45;1.00;;;0.20;99.90;;;;;;4995816;28;20135;-75
2022/12/19 09:54:51;;;;;;;3.35;0.73;;;0.20;99.90;;;;;;5010109;28;20144;-75
2022/12/19 09:57:26;;;;;;;4.38;0.90;;;0.20;99.90;;;;;;5007435;28;20065;-76
2022/12/19 09:59:57;;;;;;;4.10;1.20;;;0.20;99.90;;;;;;4999482;28;20059;-74
2022/12/19 10:02:37;;;;;;;4.97;1.45;;;0.20;99.90;;;;;;4998958;28;20124;-74
2022/12/19 10:05:15;;;;;;;4.18;1.17;;;0.20;99.90;;;;;;5002638;28;20104;-74
2022/12/19 10:07:44;;;;;;;5.15;1.63;;;0.20;99.90;;;;;;4998383;28;20501;-74
2022/12/19 10:10:21;;;;;;;3.35;1.30;;;0.30;99.90;;;;;;5009773;28;20054;-75
2022/12/19 10:13:12;;;;;;;3.42;0.93;;;0.30;99.90;;;;;;5010580;28;20406;-74
2022/12/19 10:15:51;;;;;;;3.80;0.75;;;0.40;99.90;;;;;;4996041;28;20461;-75
2022/12/19 10:18:36;;;;;;;7.22;0.80;;;0.40;99.90;;;;;;5003693;28;20054;-75
2022/12/19 10:21:09;;;;;;;4.88;1.30;;;0.50;99.90;;;;;;5011226;28;20574;-76
2022/12/19 10:23:59;;;;;;;4.60;1.00;;;0.60;99.90;;;;;;5014364;28;20144;-76
2022/12/19 10:26:34;;;;;;;6.00;1.20;;;0.70;99.90;;;;;;5012080;28;20112;-75
2022/12/19 10:29:30;;;;;;;8.32;1.23;;;0.70;99.90;;;;;;5012656;28;20573;-75
2022/12/19 10:32:03;;;;;;;9.52;1.27;;;0.70;99.90;;;;;;5010552;28;20057;-75
2022/12/19 10:34:34;;;;;;;;;;;0.70;99.90;;;;;;5014321;28;20443;-75
2022/12/19 10:37:12;;;;;;;7.50;1.23;;;0.70;99.90;;;;;;5011055;28;19925;-74
2022/12/19 10:39:56;;;;;;;9.63;1.58;;;0.80;99.90;;;;;;5011437;28;20049;-75
2022/12/19 10:42:38;;;;;;;9.25;1.45;;;0.90;99.90;;;;;;5001794;28;20144;-77
2022/12/19 10:45:13;;;;;;;10.32;2.17;;;1.00;99.90;;;;;;5006640;28;20140;-76
2022/12/19 10:47:42;;;;;;;5.63;1.45;;;1.10;99.90;;;;;;5008533;28;20054;-76
2022/12/19 10:50:14;;;;;;;6.65;1.27;;;1.10;99.90;;;;;;5001466;28;20116;-75
2022/12/19 10:52:52;;;;;;;7.50;1.63;;;1.10;99.90;;;;;;5004927;28;20049;-74
2022/12/19 10:55:39;;;;;;;8.48;1.30;;;1.20;99.90;;;;;;5011872;28;20050;-76
2022/12/19 10:58:22;;;;;;;7.25;1.98;;;1.20;99.90;;;;;;5012962;28;20058;-74
2022/12/19 11:00:59;;;;;;;;;;;1.30;99.90;;;;;;5013980;28;20123;-74
2022/12/19 11:03:27;;;;;;;4.65;0.73;;;1.30;99.90;;;;;;5013399;28;19932;-75
2022/12/19 11:05:57;;;;;;;6.60;1.98;;;1.40;99.90;;;;;;5005495;28;20430;-76
2022/12/19 11:08:27;;;;;;;8.15;1.17;;;1.40;99.90;;;;;;5022244;28;20144;-75
2022/12/19 11:10:57;;;;;;;3.67;1.27;;;1.40;99.90;;;;;;5003746;28;20529;-75
2022/12/19 11:13:29;;;;;;;3.58;1.00;;;1.40;99.90;;;;;;5005495;28;20054;-75
2022/12/19 11:15:58;;;;;;;6.22;1.20;;;1.40;99.90;;;;;;4991630;28;20510;-76
2022/12/19 11:18:36;;;;;;;5.35;1.00;;;1.50;99.90;;;;;;4990509;28;20145;-73
2022/12/19 11:21:14;;;;;;;4.95;1.30;;;1.40;99.90;;;;;;5011099;28;20053;-75
2022/12/19 11:23:50;;;;;;;6.53;1.58;;;1.50;99.90;;;;;;5012587;28;20065;-76
2022/12/19 11:26:35;;;;;;;7.32;1.50;;;1.40;99.90;;;;;;5010094;28;20046;-76
2022/12/19 11:29:18;;;;;;;6.57;1.23;;;1.40;99.90;;;;;;5009584;28;20507;-75
2022/12/19 11:31:47;;;;;;;;;;;1.50;99.90;;;;;;5000925;28;20069;-75
2022/12/19 11:34:22;;;;;;;6.63;1.23;;;1.50;99.90;;;;;;5002698;28;19976;-75
2022/12/19 11:36:57;;;;;;;5.40;1.10;;;1.50;99.90;;;;;;4992735;28;20066;-76
2022/12/19 11:39:33;;;;;;;6.35;1.40;;;1.50;99.90;;;;;;4990899;28;20054;-76
2022/12/19 11:42:08;;;;;;;6.55;1.40;;;1.50;99.90;;;;;;4992128;28;20046;-75
2022/12/19 11:44:46;;;;;;;5.20;1.60;;;1.50;99.90;;;;;;5007426;28;20058;-74
2022/12/19 11:47:31;;;;;;;5.13;1.05;;;1.40;99.90;;;;;;5009327;28;20046;-75
2022/12/19 11:50:04;;;;;;;7.22;1.90;;;1.40;99.90;;;;;;4998140;28;20050;-77
2022/12/19 11:52:42;;;;;;;3.83;1.40;;;1.40;99.90;;;;;;5014568;28;20053;-76
2022/12/19 11:55:20;;;;;;;4.05;1.33;;;1.40;99.90;;;;;;5008741;28;20042;-75
2022/12/19 11:57:48;;;;;;;6.82;1.83;;;1.40;99.90;;;;;;5002092;28;20066;-74
2022/12/19 12:00:21;;;;;;;8.75;1.48;;;1.30;99.90;;;;;;5004079;28;20128;-75
2022/12/19 12:03:34;;;;;;;4.60;0.93;;;1.40;99.90;;;;;;4993932;28;20054;-74
2022/12/19 12:06:12;;;;;;;5.15;1.52;;;1.40;99.90;;;;;;4991582;28;20052;-80
2022/12/19 12:08:56;;;;;;;11.88;1.30;;;1.40;99.90;;;;;;4992323;28;20073;-79
2022/12/19 12:11:33;;;;;;;7.22;1.30;;;1.40;99.90;;;;;;4990906;28;20062;-81
2022/12/19 12:14:18;;;;;;;7.88;2.05;;;1.40;99.90;;;;;;5004661;28;20053;-79
2022/12/19 12:17:28;;;;;;;9.60;1.77;;;1.40;99.90;;;;;;5006033;28;20112;-78
2022/12/19 12:20:15;;;;;;;6.38;2.28;;;1.40;99.90;;;;;;5010790;28;20080;-76
2022/12/19 12:23:04;;;;;;;8.23;1.77;;;1.30;99.90;;;;;;5009599;28;20046;-75
2022/12/19 12:25:49;;;;;;;14.80;2.58;;;1.20;99.90;;;;;;4986509;28;20166;-75
2022/12/19 12:28:50;;;;;;;5.70;1.73;;;1.20;99.90;;;;;;5011338;28;20054;-72
2022/12/19 12:31:38;;;;;;;7.28;1.48;;;1.10;99.90;;;;;;5007180;28;20050;-77
2022/12/19 12:34:41;;;;;;;7.55;1.92;;;1.00;99.90;;;;;;5007614;28;20054;-78
2022/12/19 12:37:25;;;;;;;5.07;1.40;;;1.00;99.90;;;;;;4997147;28;20411;-75
2022/12/19 12:40:15;;;;;;;3.58;1.23;;;0.90;99.90;;;;;;5004826;28;20058;-77
2022/12/19 12:42:55;;;;;;;6.50;1.67;;;0.80;99.90;;;;;;4991157;28;20047;-76
2022/12/19 12:45:31;;;;;;;10.32;1.88;;;0.70;99.90;;;;;;4996387;28;20159;-77
2022/12/19 12:47:59;;;;;;;8.45;1.98;;;0.60;99.90;;;;;;5007841;28;20530;-75
2022/12/19 12:50:28;;;;;;;5.07;2.10;;;0.60;99.90;;;;;;5011086;28;20057;-77
2022/12/19 12:53:01;;;;;;;8.65;1.52;;;0.60;99.90;;;;;;5009751;28;20041;-77
2022/12/19 12:55:32;;;;;;;8.60;1.40;;;0.50;99.90;;;;;;5011145;28;20049;-77
2022/12/19 12:58:00;;;;;;;7.15;1.80;;;0.60;99.90;;;;;;5009702;28;20061;-77
2022/12/19 13:00:31;;;;;;;5.25;1.50;;;0.50;99.90;;;;;;5011062;28;20053;-75
2022/12/19 13:03:05;;;;;;;5.90;1.85;;;0.50;99.90;;;;;;5002608;28;20042;-76
2022/12/19 13:05:52;;;;;;;7.40;1.60;;;0.50;99.90;;;;;;4997745;28;20438;-76
2022/12/19 13:08:39;;;;;;;8.15;1.65;;;0.50;99.90;;;;;;4988889;28;20153;-76
2022/12/19 13:12:58;;;;;;;8.00;1.50;;;0.40;99.90;;;;;;4999401;28;20056;-73
2022/12/19 13:14:02;;;;;;;5.63;1.85;;;0.40;99.90;;;;;;5002726;28;20105;-76
2022/12/19 13:16:52;;;;;;;8.77;1.80;;;0.40;99.90;;;;;;5000418;28;20053;-72
2022/12/19 13:19:24;;;;;;;6.07;1.35;;;0.40;99.90;;;;;;5000727;28;20062;-72
2022/12/19 13:22:17;;;;;;;8.15;1.40;;;0.50;99.90;;;;;;4992946;28;20058;-78
2022/12/19 13:24:48;;;;;;;7.43;2.38;;;0.50;99.90;;;;;;5008623;28;20046;-70
2022/12/19 13:27:36;;;;;;;4.13;2.17;;;0.50;99.90;;;;;;4994329;28;20054;-71
2022/12/19 13:30:18;;;;;;;8.00;2.17;;;0.50;99.90;;;;;;5005603;28;20410;-76
2022/12/19 13:33:11;;;;;;;7.18;2.08;;;0.50;99.90;;;;;;4998602;28;20053;-75
2022/12/19 13:35:39;;;;;;;3.67;1.60;;;0.60;99.90;;;;;;5007897;28;20045;-77